sensor_id;sensor_type;location;lat;lon;timestamp;P1;durP1;ratioP1;P2;durP2;ratioP2
55190;SDS011;41070;50.360;18.742;2023-09-18T00:00:44;7.60;;;5.80;;
55190;SDS011;41070;50.360;18.742;2023-09-18T00:03:31;9.40;;;6.70;;
55190;SDS011;41070;50.360;18.742;2023-09-18T00:05:59;11.90;;;7.30;;
55190;SDS011;41070;50.360;18.742;2023-09-18T00:08:33;8.20;;;6.70;;
55190;SDS011;41070;50.360;18.742;2023-09-18T00:10:59;8.40;;;6.30;;
55190;SDS011;41070;50.360;18.742;2023-09-18T00:13:26;8.80;;;6.50;;
55190;SDS011;41070;50.360;18.742;2023-09-18T00:18:20;10.40;;;6.10;;
55190;SDS011;41070;50.360;18.742;2023-09-18T00:23:14;8.40;;;7.00;;
55190;SDS011;41070;50.360;18.742;2023-09-18T00:25:40;8.60;;;6.30;;
55190;SDS011;41070;50.360;18.742;2023-09-18T00:28:11;9.90;;;7.00;;
55190;SDS011;41070;50.360;18.742;2023-09-18T00:33:11;8.20;;;6.50;;
55190;SDS011;41070;50.360;18.742;2023-09-18T00:38:03;8.70;;;6.50;;
55190;SDS011;41070;50.360;18.742;2023-09-18T00:40:30;8.10;;;6.30;;
55190;SDS011;41070;50.360;18.742;2023-09-18T00:45:22;8.20;;;6.80;;
55190;SDS011;41070;50.360;18.742;2023-09-18T00:50:18;9.90;;;6.70;;
55190;SDS011;41070;50.360;18.742;2023-09-18T00:52:44;9.90;;;6.20;;
55190;SDS011;41070;50.360;18.742;2023-09-18T00:55:10;9.70;;;6.20;;
55190;SDS011;41070;50.360;18.742;2023-09-18T00:57:38;9.00;;;6.40;;
55190;SDS011;41070;50.360;18.742;2023-09-18T01:00:05;7.40;;;6.50;;
55190;SDS011;41070;50.360;18.742;2023-09-18T01:02:44;9.40;;;7.40;;
55190;SDS011;41070;50.360;18.742;2023-09-18T01:05:11;15.60;;;10.20;;
55190;SDS011;41070;50.360;18.742;2023-09-18T01:07:42;16.10;;;13.50;;
55190;SDS011;41070;50.360;18.742;2023-09-18T01:10:09;10.80;;;7.40;;
55190;SDS011;41070;50.360;18.742;2023-09-18T01:12:52;15.80;;;11.80;;
55190;SDS011;41070;50.360;18.742;2023-09-18T01:15:32;10.90;;;8.90;;
55190;SDS011;41070;50.360;18.742;2023-09-18T01:18:03;9.00;;;7.60;;
55190;SDS011;41070;50.360;18.742;2023-09-18T01:20:30;9.60;;;8.00;;
55190;SDS011;41070;50.360;18.742;2023-09-18T01:23:00;14.80;;;9.60;;
55190;SDS011;41070;50.360;18.742;2023-09-18T01:27:52;10.30;;;8.20;;
55190;SDS011;41070;50.360;18.742;2023-09-18T01:32:44;11.90;;;7.70;;
55190;SDS011;41070;50.360;18.742;2023-09-18T01:35:33;10.70;;;7.50;;
55190;SDS011;41070;50.360;18.742;2023-09-18T01:38:03;11.60;;;7.20;;
55190;SDS011;41070;50.360;18.742;2023-09-18T01:40:48;8.80;;;6.60;;
55190;SDS011;41070;50.360;18.742;2023-09-18T01:43:54;10.00;;;6.50;;
55190;SDS011;41070;50.360;18.742;2023-09-18T01:46:21;9.10;;;7.20;;
55190;SDS011;41070;50.360;18.742;2023-09-18T01:48:47;11.90;;;8.70;;
55190;SDS011;41070;50.360;18.742;2023-09-18T01:51:14;10.30;;;7.40;;
55190;SDS011;41070;50.360;18.742;2023-09-18T01:53:41;13.50;;;9.00;;
55190;SDS011;41070;50.360;18.742;2023-09-18T01:56:13;9.40;;;7.90;;
55190;SDS011;41070;50.360;18.742;2023-09-18T01:58:49;12.10;;;8.70;;
55190;SDS011;41070;50.360;18.742;2023-09-18T02:01:18;12.50;;;8.60;;
55190;SDS011;41070;50.360;18.742;2023-09-18T02:03:46;8.40;;;7.30;;
55190;SDS011;41070;50.360;18.742;2023-09-18T02:06:12;9.50;;;7.70;;
55190;SDS011;41070;50.360;18.742;2023-09-18T02:08:40;9.80;;;8.40;;
55190;SDS011;41070;50.360;18.742;2023-09-18T02:11:15;9.20;;;8.00;;
55190;SDS011;41070;50.360;18.742;2023-09-18T02:16:07;11.40;;;7.40;;
55190;SDS011;41070;50.360;18.742;2023-09-18T02:18:34;14.20;;;9.80;;
55190;SDS011;41070;50.360;18.742;2023-09-18T02:23:26;10.60;;;7.90;;
55190;SDS011;41070;50.360;18.742;2023-09-18T02:28:25;9.50;;;8.30;;
55190;SDS011;41070;50.360;18.742;2023-09-18T02:30:51;9.30;;;7.50;;
55190;SDS011;41070;50.360;18.742;2023-09-18T02:33:20;11.90;;;7.30;;
55190;SDS011;41070;50.360;18.742;2023-09-18T02:35:46;8.10;;;6.70;;
55190;SDS011;41070;50.360;18.742;2023-09-18T02:40:39;10.10;;;6.90;;
55190;SDS011;41070;50.360;18.742;2023-09-18T02:45:31;11.10;;;7.00;;
55190;SDS011;41070;50.360;18.742;2023-09-18T02:47:58;10.60;;;7.70;;
55190;SDS011;41070;50.360;18.742;2023-09-18T02:53:19;9.70;;;7.10;;
55190;SDS011;41070;50.360;18.742;2023-09-18T02:55:54;13.20;;;8.40;;
55190;SDS011;41070;50.360;18.742;2023-09-18T02:58:22;10.10;;;6.60;;
55190;SDS011;41070;50.360;18.742;2023-09-18T03:00:51;10.90;;;8.10;;
55190;SDS011;41070;50.360;18.742;2023-09-18T03:03:22;12.40;;;8.90;;
55190;SDS011;41070;50.360;18.742;2023-09-18T03:05:49;12.20;;;8.70;;
55190;SDS011;41070;50.360;18.742;2023-09-18T03:08:16;11.30;;;7.30;;
55190;SDS011;41070;50.360;18.742;2023-09-18T03:10:43;11.00;;;8.60;;
55190;SDS011;41070;50.360;18.742;2023-09-18T03:13:27;11.20;;;7.90;;
55190;SDS011;41070;50.360;18.742;2023-09-18T03:15:54;10.00;;;7.10;;
55190;SDS011;41070;50.360;18.742;2023-09-18T03:18:22;11.20;;;8.60;;
55190;SDS011;41070;50.360;18.742;2023-09-18T03:21:08;12.80;;;8.30;;
55190;SDS011;41070;50.360;18.742;2023-09-18T03:23:46;13.00;;;8.50;;
55190;SDS011;41070;50.360;18.742;2023-09-18T03:28:40;11.50;;;8.10;;
55190;SDS011;41070;50.360;18.742;2023-09-18T03:33:33;12.30;;;7.70;;
55190;SDS011;41070;50.360;18.742;2023-09-18T03:38:25;11.50;;;8.10;;
55190;SDS011;41070;50.360;18.742;2023-09-18T03:43:18;13.10;;;9.50;;
55190;SDS011;41070;50.360;18.742;2023-09-18T03:46:02;13.20;;;9.00;;
55190;SDS011;41070;50.360;18.742;2023-09-18T03:48:51;13.10;;;8.90;;
55190;SDS011;41070;50.360;18.742;2023-09-18T03:51:39;17.40;;;9.60;;
55190;SDS011;41070;50.360;18.742;2023-09-18T03:54:06;16.50;;;10.00;;
55190;SDS011;41070;50.360;18.742;2023-09-18T03:58:58;17.30;;;10.20;;
55190;SDS011;41070;50.360;18.742;2023-09-18T04:01:27;14.30;;;9.10;;
55190;SDS011;41070;50.360;18.742;2023-09-18T04:03:54;16.50;;;10.40;;
55190;SDS011;41070;50.360;18.742;2023-09-18T04:06:20;19.20;;;11.20;;
55190;SDS011;41070;50.360;18.742;2023-09-18T04:08:50;15.50;;;10.70;;
55190;SDS011;41070;50.360;18.742;2023-09-18T04:11:17;16.60;;;9.70;;
55190;SDS011;41070;50.360;18.742;2023-09-18T04:13:44;16.40;;;10.70;;
55190;SDS011;41070;50.360;18.742;2023-09-18T04:16:11;18.10;;;10.60;;
55190;SDS011;41070;50.360;18.742;2023-09-18T04:18:44;21.50;;;11.50;;
55190;SDS011;41070;50.360;18.742;2023-09-18T04:23:38;18.70;;;11.00;;
55190;SDS011;41070;50.360;18.742;2023-09-18T04:26:05;24.60;;;11.80;;
55190;SDS011;41070;50.360;18.742;2023-09-18T04:33:29;17.20;;;10.00;;
55190;SDS011;41070;50.360;18.742;2023-09-18T04:38:22;18.70;;;10.60;;
55190;SDS011;41070;50.360;18.742;2023-09-18T04:40:48;24.20;;;10.90;;
55190;SDS011;41070;50.360;18.742;2023-09-18T04:43:15;19.60;;;9.90;;
55190;SDS011;41070;50.360;18.742;2023-09-18T04:48:08;18.50;;;9.60;;
55190;SDS011;41070;50.360;18.742;2023-09-18T04:53:00;13.40;;;9.10;;
55190;SDS011;41070;50.360;18.742;2023-09-18T04:55:27;17.90;;;10.80;;
55190;SDS011;41070;50.360;18.742;2023-09-18T05:00:20;15.70;;;11.00;;
55190;SDS011;41070;50.360;18.742;2023-09-18T05:02:51;20.90;;;12.20;;
55190;SDS011;41070;50.360;18.742;2023-09-18T05:05:17;20.90;;;12.80;;
55190;SDS011;41070;50.360;18.742;2023-09-18T05:07:44;15.50;;;10.30;;
55190;SDS011;41070;50.360;18.742;2023-09-18T05:10:12;22.20;;;10.70;;
55190;SDS011;41070;50.360;18.742;2023-09-18T05:12:39;15.90;;;10.30;;
55190;SDS011;41070;50.360;18.742;2023-09-18T05:15:06;18.40;;;9.90;;
55190;SDS011;41070;50.360;18.742;2023-09-18T05:17:42;17.20;;;10.40;;
55190;SDS011;41070;50.360;18.742;2023-09-18T05:20:14;14.70;;;11.00;;
55190;SDS011;41070;50.360;18.742;2023-09-18T05:22:42;17.10;;;10.80;;
55190;SDS011;41070;50.360;18.742;2023-09-18T05:25:12;14.80;;;10.40;;
55190;SDS011;41070;50.360;18.742;2023-09-18T05:27:40;15.50;;;10.30;;
55190;SDS011;41070;50.360;18.742;2023-09-18T05:30:13;17.50;;;10.70;;
55190;SDS011;41070;50.360;18.742;2023-09-18T05:32:42;16.00;;;10.60;;
55190;SDS011;41070;50.360;18.742;2023-09-18T05:35:08;18.00;;;11.50;;
55190;SDS011;41070;50.360;18.742;2023-09-18T05:37:38;18.30;;;10.50;;
55190;SDS011;41070;50.360;18.742;2023-09-18T05:40:06;15.50;;;10.00;;
55190;SDS011;41070;50.360;18.742;2023-09-18T05:42:38;15.10;;;10.80;;
55190;SDS011;41070;50.360;18.742;2023-09-18T05:45:09;17.90;;;11.00;;
55190;SDS011;41070;50.360;18.742;2023-09-18T05:47:36;17.20;;;10.80;;
55190;SDS011;41070;50.360;18.742;2023-09-18T05:50:12;18.00;;;11.40;;
55190;SDS011;41070;50.360;18.742;2023-09-18T05:52:46;15.30;;;10.50;;
55190;SDS011;41070;50.360;18.742;2023-09-18T05:55:13;18.90;;;10.20;;
55190;SDS011;41070;50.360;18.742;2023-09-18T05:57:41;14.00;;;10.00;;
55190;SDS011;41070;50.360;18.742;2023-09-18T06:00:09;20.80;;;11.60;;
55190;SDS011;41070;50.360;18.742;2023-09-18T06:02:39;17.40;;;10.40;;
55190;SDS011;41070;50.360;18.742;2023-09-18T06:05:07;14.80;;;10.10;;
55190;SDS011;41070;50.360;18.742;2023-09-18T06:07:37;17.00;;;11.20;;
55190;SDS011;41070;50.360;18.742;2023-09-18T06:10:03;19.20;;;10.60;;
55190;SDS011;41070;50.360;18.742;2023-09-18T06:12:30;18.00;;;10.20;;
55190;SDS011;41070;50.360;18.742;2023-09-18T06:17:23;11.40;;;9.30;;
55190;SDS011;41070;50.360;18.742;2023-09-18T06:19:49;13.30;;;9.70;;
55190;SDS011;41070;50.360;18.742;2023-09-18T06:22:16;13.70;;;9.30;;
55190;SDS011;41070;50.360;18.742;2023-09-18T06:24:42;12.60;;;9.50;;
55190;SDS011;41070;50.360;18.742;2023-09-18T06:29:37;11.20;;;9.10;;
55190;SDS011;41070;50.360;18.742;2023-09-18T06:32:04;11.80;;;9.20;;
55190;SDS011;41070;50.360;18.742;2023-09-18T06:34:31;12.70;;;9.40;;
55190;SDS011;41070;50.360;18.742;2023-09-18T06:36:58;14.00;;;9.40;;
55190;SDS011;41070;50.360;18.742;2023-09-18T06:39:24;14.90;;;9.50;;
55190;SDS011;41070;50.360;18.742;2023-09-18T06:41:51;13.00;;;9.20;;
55190;SDS011;41070;50.360;18.742;2023-09-18T06:44:17;12.00;;;9.70;;
55190;SDS011;41070;50.360;18.742;2023-09-18T06:46:44;15.30;;;9.80;;
55190;SDS011;41070;50.360;18.742;2023-09-18T06:49:10;11.80;;;9.00;;
55190;SDS011;41070;50.360;18.742;2023-09-18T06:51:36;13.10;;;9.70;;
55190;SDS011;41070;50.360;18.742;2023-09-18T06:54:02;12.80;;;9.40;;
55190;SDS011;41070;50.360;18.742;2023-09-18T06:56:31;15.20;;;9.80;;
55190;SDS011;41070;50.360;18.742;2023-09-18T06:58:58;10.10;;;9.10;;
55190;SDS011;41070;50.360;18.742;2023-09-18T07:01:24;11.70;;;9.40;;
55190;SDS011;41070;50.360;18.742;2023-09-18T07:03:51;11.00;;;9.20;;
55190;SDS011;41070;50.360;18.742;2023-09-18T07:06:17;13.50;;;9.70;;
55190;SDS011;41070;50.360;18.742;2023-09-18T07:08:46;12.40;;;8.80;;
55190;SDS011;41070;50.360;18.742;2023-09-18T07:11:15;11.60;;;9.50;;
55190;SDS011;41070;50.360;18.742;2023-09-18T07:13:42;14.80;;;9.70;;
55190;SDS011;41070;50.360;18.742;2023-09-18T07:16:09;11.00;;;8.50;;
55190;SDS011;41070;50.360;18.742;2023-09-18T07:18:36;10.10;;;9.00;;
55190;SDS011;41070;50.360;18.742;2023-09-18T07:21:02;10.20;;;8.70;;
55190;SDS011;41070;50.360;18.742;2023-09-18T07:23:28;11.10;;;9.30;;
55190;SDS011;41070;50.360;18.742;2023-09-18T07:25:55;11.60;;;9.20;;
55190;SDS011;41070;50.360;18.742;2023-09-18T07:28:26;10.30;;;9.30;;
55190;SDS011;41070;50.360;18.742;2023-09-18T07:30:52;11.80;;;9.00;;
55190;SDS011;41070;50.360;18.742;2023-09-18T07:33:18;11.80;;;9.60;;
55190;SDS011;41070;50.360;18.742;2023-09-18T07:35:47;11.10;;;9.30;;
55190;SDS011;41070;50.360;18.742;2023-09-18T07:38:14;11.30;;;9.90;;
55190;SDS011;41070;50.360;18.742;2023-09-18T07:40:41;13.70;;;10.40;;
55190;SDS011;41070;50.360;18.742;2023-09-18T07:43:07;10.60;;;9.10;;
55190;SDS011;41070;50.360;18.742;2023-09-18T07:45:33;10.00;;;8.60;;
55190;SDS011;41070;50.360;18.742;2023-09-18T07:48:01;11.20;;;8.90;;
55190;SDS011;41070;50.360;18.742;2023-09-18T07:50:29;11.60;;;9.40;;
55190;SDS011;41070;50.360;18.742;2023-09-18T07:52:57;10.90;;;9.80;;
55190;SDS011;41070;50.360;18.742;2023-09-18T07:55:23;11.90;;;9.90;;
55190;SDS011;41070;50.360;18.742;2023-09-18T07:57:50;10.20;;;9.10;;
55190;SDS011;41070;50.360;18.742;2023-09-18T08:00:17;13.50;;;9.80;;
55190;SDS011;41070;50.360;18.742;2023-09-18T08:02:44;11.80;;;10.20;;
55190;SDS011;41070;50.360;18.742;2023-09-18T08:05:12;11.20;;;9.90;;
55190;SDS011;41070;50.360;18.742;2023-09-18T08:07:39;12.90;;;9.90;;
55190;SDS011;41070;50.360;18.742;2023-09-18T08:10:06;13.10;;;9.50;;
55190;SDS011;41070;50.360;18.742;2023-09-18T08:12:34;11.90;;;9.30;;
55190;SDS011;41070;50.360;18.742;2023-09-18T08:15:00;11.60;;;9.30;;
55190;SDS011;41070;50.360;18.742;2023-09-18T08:17:28;13.20;;;10.70;;
55190;SDS011;41070;50.360;18.742;2023-09-18T08:19:55;10.90;;;9.20;;
55190;SDS011;41070;50.360;18.742;2023-09-18T08:22:21;12.10;;;9.90;;
55190;SDS011;41070;50.360;18.742;2023-09-18T08:24:48;13.00;;;10.20;;
55190;SDS011;41070;50.360;18.742;2023-09-18T08:27:14;11.70;;;9.90;;
55190;SDS011;41070;50.360;18.742;2023-09-18T08:29:42;13.80;;;10.10;;
55190;SDS011;41070;50.360;18.742;2023-09-18T08:32:09;11.60;;;10.40;;
55190;SDS011;41070;50.360;18.742;2023-09-18T08:34:35;12.20;;;10.00;;
55190;SDS011;41070;50.360;18.742;2023-09-18T08:37:02;12.80;;;10.50;;
55190;SDS011;41070;50.360;18.742;2023-09-18T08:39:28;11.60;;;10.40;;
55190;SDS011;41070;50.360;18.742;2023-09-18T08:41:57;11.90;;;10.60;;
55190;SDS011;41070;50.360;18.742;2023-09-18T08:44:26;13.70;;;10.20;;
55190;SDS011;41070;50.360;18.742;2023-09-18T08:46:56;11.60;;;9.30;;
55190;SDS011;41070;50.360;18.742;2023-09-18T08:49:23;11.70;;;10.50;;
55190;SDS011;41070;50.360;18.742;2023-09-18T08:51:51;12.00;;;10.20;;
55190;SDS011;41070;50.360;18.742;2023-09-18T08:54:21;11.40;;;10.20;;
55190;SDS011;41070;50.360;18.742;2023-09-18T08:56:50;11.40;;;10.20;;
55190;SDS011;41070;50.360;18.742;2023-09-18T08:59:17;12.90;;;10.30;;
55190;SDS011;41070;50.360;18.742;2023-09-18T09:01:47;12.20;;;10.30;;
55190;SDS011;41070;50.360;18.742;2023-09-18T09:04:14;14.50;;;11.30;;
55190;SDS011;41070;50.360;18.742;2023-09-18T09:06:40;14.70;;;11.10;;
55190;SDS011;41070;50.360;18.742;2023-09-18T09:09:07;13.20;;;11.20;;
55190;SDS011;41070;50.360;18.742;2023-09-18T09:11:34;16.90;;;11.30;;
55190;SDS011;41070;50.360;18.742;2023-09-18T09:14:11;12.40;;;10.10;;
55190;SDS011;41070;50.360;18.742;2023-09-18T09:16:41;13.00;;;10.80;;
55190;SDS011;41070;50.360;18.742;2023-09-18T09:19:13;14.60;;;11.50;;
55190;SDS011;41070;50.360;18.742;2023-09-18T09:21:40;13.00;;;10.60;;
55190;SDS011;41070;50.360;18.742;2023-09-18T09:24:09;12.10;;;10.80;;
55190;SDS011;41070;50.360;18.742;2023-09-18T09:26:39;13.30;;;10.30;;
55190;SDS011;41070;50.360;18.742;2023-09-18T09:29:13;12.50;;;10.40;;
55190;SDS011;41070;50.360;18.742;2023-09-18T09:31:43;11.30;;;10.10;;
55190;SDS011;41070;50.360;18.742;2023-09-18T09:34:11;11.90;;;10.70;;
55190;SDS011;41070;50.360;18.742;2023-09-18T09:36:54;11.70;;;10.50;;
55190;SDS011;41070;50.360;18.742;2023-09-18T09:39:21;12.50;;;11.20;;
55190;SDS011;41070;50.360;18.742;2023-09-18T09:41:51;12.20;;;11.00;;
55190;SDS011;41070;50.360;18.742;2023-09-18T09:44:19;11.90;;;10.40;;
55190;SDS011;41070;50.360;18.742;2023-09-18T09:46:47;12.00;;;10.70;;
55190;SDS011;41070;50.360;18.742;2023-09-18T09:49:15;14.20;;;11.40;;
55190;SDS011;41070;50.360;18.742;2023-09-18T09:51:42;13.30;;;11.30;;
55190;SDS011;41070;50.360;18.742;2023-09-18T09:54:11;12.30;;;11.00;;
55190;SDS011;41070;50.360;18.742;2023-09-18T09:59:16;12.20;;;10.90;;
55190;SDS011;41070;50.360;18.742;2023-09-18T10:01:48;12.80;;;11.40;;
55190;SDS011;41070;50.360;18.742;2023-09-18T10:04:16;13.70;;;11.00;;
55190;SDS011;41070;50.360;18.742;2023-09-18T10:06:51;13.80;;;10.70;;
55190;SDS011;41070;50.360;18.742;2023-09-18T10:09:22;12.70;;;10.50;;
55190;SDS011;41070;50.360;18.742;2023-09-18T10:11:52;13.90;;;11.10;;
55190;SDS011;41070;50.360;18.742;2023-09-18T10:14:25;12.00;;;10.80;;
55190;SDS011;41070;50.360;18.742;2023-09-18T10:16:57;15.00;;;10.90;;
55190;SDS011;41070;50.360;18.742;2023-09-18T10:22:38;11.30;;;10.20;;
55190;SDS011;41070;50.360;18.742;2023-09-18T10:25:14;13.70;;;10.00;;
55190;SDS011;41070;50.360;18.742;2023-09-18T10:27:54;12.30;;;11.00;;
55190;SDS011;41070;50.360;18.742;2023-09-18T10:30:29;14.30;;;10.40;;
55190;SDS011;41070;50.360;18.742;2023-09-18T10:33:00;13.00;;;10.40;;
55190;SDS011;41070;50.360;18.742;2023-09-18T10:35:27;10.90;;;9.80;;
55190;SDS011;41070;50.360;18.742;2023-09-18T10:37:54;11.30;;;10.00;;
55190;SDS011;41070;50.360;18.742;2023-09-18T10:40:20;11.70;;;10.50;;
55190;SDS011;41070;50.360;18.742;2023-09-18T10:42:48;13.50;;;10.50;;
55190;SDS011;41070;50.360;18.742;2023-09-18T10:45:18;10.70;;;9.60;;
55190;SDS011;41070;50.360;18.742;2023-09-18T10:47:44;12.90;;;10.50;;
55190;SDS011;41070;50.360;18.742;2023-09-18T10:50:24;11.90;;;10.80;;
55190;SDS011;41070;50.360;18.742;2023-09-18T10:52:53;11.70;;;10.50;;
55190;SDS011;41070;50.360;18.742;2023-09-18T10:55:23;12.00;;;10.60;;
55190;SDS011;41070;50.360;18.742;2023-09-18T10:57:50;11.60;;;10.40;;
55190;SDS011;41070;50.360;18.742;2023-09-18T11:00:18;11.50;;;10.30;;
55190;SDS011;41070;50.360;18.742;2023-09-18T11:02:54;10.10;;;9.10;;
55190;SDS011;41070;50.360;18.742;2023-09-18T11:05:37;11.60;;;9.60;;
55190;SDS011;41070;50.360;18.742;2023-09-18T11:11:00;12.00;;;9.80;;
55190;SDS011;41070;50.360;18.742;2023-09-18T11:19:05;11.10;;;10.00;;
55190;SDS011;41070;50.360;18.742;2023-09-18T11:21:34;11.30;;;9.60;;
55190;SDS011;41070;50.360;18.742;2023-09-18T11:26:30;13.40;;;10.10;;
55190;SDS011;41070;50.360;18.742;2023-09-18T11:29:05;12.50;;;9.70;;
55190;SDS011;41070;50.360;18.742;2023-09-18T11:34:24;11.10;;;10.10;;
55190;SDS011;41070;50.360;18.742;2023-09-18T11:37:20;10.70;;;9.60;;
55190;SDS011;41070;50.360;18.742;2023-09-18T11:39:49;10.70;;;9.60;;
55190;SDS011;41070;50.360;18.742;2023-09-18T11:42:18;10.90;;;9.90;;
55190;SDS011;41070;50.360;18.742;2023-09-18T11:44:48;11.20;;;9.40;;
55190;SDS011;41070;50.360;18.742;2023-09-18T11:47:19;10.60;;;9.60;;
55190;SDS011;41070;50.360;18.742;2023-09-18T11:49:50;11.00;;;9.90;;
55190;SDS011;41070;50.360;18.742;2023-09-18T11:52:22;11.20;;;10.10;;
55190;SDS011;41070;50.360;18.742;2023-09-18T11:54:49;9.90;;;8.90;;
55190;SDS011;41070;50.360;18.742;2023-09-18T11:57:19;12.10;;;9.40;;
55190;SDS011;41070;50.360;18.742;2023-09-18T11:59:48;11.30;;;10.10;;
55190;SDS011;41070;50.360;18.742;2023-09-18T12:02:27;11.30;;;9.90;;
55190;SDS011;41070;50.360;18.742;2023-09-18T12:05:20;11.60;;;9.10;;
55190;SDS011;41070;50.360;18.742;2023-09-18T12:08:11;13.60;;;10.00;;
55190;SDS011;41070;50.360;18.742;2023-09-18T12:10:56;12.10;;;9.00;;
55190;SDS011;41070;50.360;18.742;2023-09-18T12:13:25;9.00;;;8.20;;
55190;SDS011;41070;50.360;18.742;2023-09-18T12:18:33;9.80;;;8.70;;
55190;SDS011;41070;50.360;18.742;2023-09-18T12:21:01;9.80;;;8.80;;
55190;SDS011;41070;50.360;18.742;2023-09-18T12:23:36;11.20;;;8.70;;
55190;SDS011;41070;50.360;18.742;2023-09-18T12:26:04;9.80;;;8.80;;
55190;SDS011;41070;50.360;18.742;2023-09-18T12:28:36;10.80;;;8.80;;
55190;SDS011;41070;50.360;18.742;2023-09-18T12:31:06;9.60;;;8.60;;
55190;SDS011;41070;50.360;18.742;2023-09-18T12:33:36;12.30;;;8.30;;
55190;SDS011;41070;50.360;18.742;2023-09-18T12:36:03;9.50;;;8.50;;
55190;SDS011;41070;50.360;18.742;2023-09-18T12:38:32;9.90;;;8.80;;
55190;SDS011;41070;50.360;18.742;2023-09-18T12:41:01;8.90;;;7.80;;
55190;SDS011;41070;50.360;18.742;2023-09-18T12:43:43;8.60;;;7.60;;
55190;SDS011;41070;50.360;18.742;2023-09-18T12:46:14;8.30;;;7.50;;
55190;SDS011;41070;50.360;18.742;2023-09-18T12:48:41;8.50;;;6.80;;
55190;SDS011;41070;50.360;18.742;2023-09-18T12:51:12;8.80;;;7.30;;
55190;SDS011;41070;50.360;18.742;2023-09-18T12:53:39;8.30;;;7.50;;
55190;SDS011;41070;50.360;18.742;2023-09-18T12:56:09;7.80;;;7.00;;
55190;SDS011;41070;50.360;18.742;2023-09-18T12:58:41;7.70;;;6.90;;
55190;SDS011;41070;50.360;18.742;2023-09-18T13:01:10;8.20;;;7.40;;
55190;SDS011;41070;50.360;18.742;2023-09-18T13:03:45;8.20;;;7.20;;
55190;SDS011;41070;50.360;18.742;2023-09-18T13:06:15;9.10;;;6.80;;
55190;SDS011;41070;50.360;18.742;2023-09-18T13:08:50;7.20;;;6.50;;
55190;SDS011;41070;50.360;18.742;2023-09-18T13:11:19;7.30;;;6.60;;
55190;SDS011;41070;50.360;18.742;2023-09-18T13:13:47;7.80;;;7.10;;
55190;SDS011;41070;50.360;18.742;2023-09-18T13:16:24;7.60;;;6.80;;
55190;SDS011;41070;50.360;18.742;2023-09-18T13:18:51;7.90;;;7.10;;
55190;SDS011;41070;50.360;18.742;2023-09-18T13:21:26;7.70;;;7.00;;
55190;SDS011;41070;50.360;18.742;2023-09-18T13:23:53;7.80;;;7.00;;
55190;SDS011;41070;50.360;18.742;2023-09-18T13:26:25;8.70;;;7.80;;
55190;SDS011;41070;50.360;18.742;2023-09-18T13:28:51;11.40;;;7.30;;
55190;SDS011;41070;50.360;18.742;2023-09-18T13:31:17;9.70;;;7.00;;
55190;SDS011;41070;50.360;18.742;2023-09-18T13:33:45;8.70;;;7.10;;
55190;SDS011;41070;50.360;18.742;2023-09-18T13:36:13;9.40;;;6.70;;
55190;SDS011;41070;50.360;18.742;2023-09-18T13:38:41;10.60;;;8.20;;
55190;SDS011;41070;50.360;18.742;2023-09-18T13:41:09;7.50;;;6.80;;
55190;SDS011;41070;50.360;18.742;2023-09-18T13:43:35;7.00;;;6.40;;
55190;SDS011;41070;50.360;18.742;2023-09-18T13:46:03;7.10;;;6.30;;
55190;SDS011;41070;50.360;18.742;2023-09-18T13:48:33;7.80;;;6.40;;
55190;SDS011;41070;50.360;18.742;2023-09-18T13:51:17;7.20;;;6.50;;
55190;SDS011;41070;50.360;18.742;2023-09-18T13:56:21;10.40;;;6.80;;
55190;SDS011;41070;50.360;18.742;2023-09-18T13:58:56;8.50;;;6.80;;
55190;SDS011;41070;50.360;18.742;2023-09-18T14:01:25;7.90;;;6.60;;
55190;SDS011;41070;50.360;18.742;2023-09-18T14:03:54;7.90;;;7.10;;
55190;SDS011;41070;50.360;18.742;2023-09-18T14:06:20;7.90;;;7.10;;
55190;SDS011;41070;50.360;18.742;2023-09-18T14:08:48;7.00;;;6.30;;
55190;SDS011;41070;50.360;18.742;2023-09-18T14:11:15;6.50;;;5.90;;
55190;SDS011;41070;50.360;18.742;2023-09-18T14:13:43;7.10;;;6.30;;
55190;SDS011;41070;50.360;18.742;2023-09-18T14:16:10;8.20;;;6.80;;
55190;SDS011;41070;50.360;18.742;2023-09-18T14:18:40;7.00;;;5.90;;
55190;SDS011;41070;50.360;18.742;2023-09-18T14:21:06;8.30;;;6.40;;
55190;SDS011;41070;50.360;18.742;2023-09-18T14:23:33;7.50;;;6.30;;
55190;SDS011;41070;50.360;18.742;2023-09-18T14:25:59;6.90;;;6.20;;
55190;SDS011;41070;50.360;18.742;2023-09-18T14:28:26;6.80;;;6.20;;
55190;SDS011;41070;50.360;18.742;2023-09-18T14:30:53;6.50;;;5.90;;
55190;SDS011;41070;50.360;18.742;2023-09-18T14:33:19;7.00;;;6.10;;
55190;SDS011;41070;50.360;18.742;2023-09-18T14:35:46;7.60;;;5.90;;
55190;SDS011;41070;50.360;18.742;2023-09-18T14:38:13;6.50;;;5.80;;
55190;SDS011;41070;50.360;18.742;2023-09-18T14:40:41;7.50;;;6.40;;
55190;SDS011;41070;50.360;18.742;2023-09-18T14:43:08;6.90;;;6.10;;
55190;SDS011;41070;50.360;18.742;2023-09-18T14:45:35;9.60;;;6.00;;
55190;SDS011;41070;50.360;18.742;2023-09-18T14:48:01;6.50;;;5.80;;
55190;SDS011;41070;50.360;18.742;2023-09-18T14:50:27;6.70;;;5.60;;
55190;SDS011;41070;50.360;18.742;2023-09-18T14:52:56;7.20;;;6.50;;
55190;SDS011;41070;50.360;18.742;2023-09-18T14:55:23;6.40;;;5.60;;
55190;SDS011;41070;50.360;18.742;2023-09-18T14:57:58;8.30;;;5.60;;
55190;SDS011;41070;50.360;18.742;2023-09-18T15:00:27;6.20;;;5.60;;
55190;SDS011;41070;50.360;18.742;2023-09-18T15:02:55;6.20;;;5.50;;
55190;SDS011;41070;50.360;18.742;2023-09-18T15:05:25;7.20;;;5.70;;
55190;SDS011;41070;50.360;18.742;2023-09-18T15:07:51;7.00;;;6.10;;
55190;SDS011;41070;50.360;18.742;2023-09-18T15:10:19;7.10;;;6.00;;
55190;SDS011;41070;50.360;18.742;2023-09-18T15:12:45;6.70;;;6.00;;
55190;SDS011;41070;50.360;18.742;2023-09-18T15:15:12;9.40;;;6.50;;
55190;SDS011;41070;50.360;18.742;2023-09-18T15:17:38;9.90;;;6.20;;
55190;SDS011;41070;50.360;18.742;2023-09-18T15:20:05;7.90;;;6.00;;
55190;SDS011;41070;50.360;18.742;2023-09-18T15:22:32;7.70;;;6.20;;
55190;SDS011;41070;50.360;18.742;2023-09-18T15:24:58;6.50;;;5.60;;
55190;SDS011;41070;50.360;18.742;2023-09-18T15:27:24;6.50;;;5.50;;
55190;SDS011;41070;50.360;18.742;2023-09-18T15:29:51;6.60;;;5.80;;
55190;SDS011;41070;50.360;18.742;2023-09-18T15:32:18;6.50;;;5.50;;
55190;SDS011;41070;50.360;18.742;2023-09-18T15:34:45;6.30;;;5.60;;
55190;SDS011;41070;50.360;18.742;2023-09-18T15:37:14;7.00;;;5.30;;
55190;SDS011;41070;50.360;18.742;2023-09-18T15:39:41;6.30;;;5.70;;
55190;SDS011;41070;50.360;18.742;2023-09-18T15:42:08;5.60;;;5.00;;
55190;SDS011;41070;50.360;18.742;2023-09-18T15:44:35;6.20;;;5.60;;
55190;SDS011;41070;50.360;18.742;2023-09-18T15:47:01;6.10;;;5.50;;
55190;SDS011;41070;50.360;18.742;2023-09-18T15:49:29;6.70;;;5.30;;
55190;SDS011;41070;50.360;18.742;2023-09-18T15:51:57;6.00;;;5.40;;
55190;SDS011;41070;50.360;18.742;2023-09-18T15:54:23;8.10;;;5.80;;
55190;SDS011;41070;50.360;18.742;2023-09-18T15:56:50;6.90;;;5.60;;
55190;SDS011;41070;50.360;18.742;2023-09-18T15:59:16;8.00;;;6.00;;
55190;SDS011;41070;50.360;18.742;2023-09-18T16:01:42;9.50;;;5.80;;
55190;SDS011;41070;50.360;18.742;2023-09-18T16:04:09;7.10;;;5.20;;
55190;SDS011;41070;50.360;18.742;2023-09-18T16:06:36;9.20;;;6.00;;